Terminal Aerodrome Forecast
Issued by NWS Jackson, KY

Home | Current Version | Previous Version | Text Only | Print | Product List | Glossary On
Versions: 1 2 3 4 5 6 7 8 9 10 11 12 13 14 15 16 17 18 19
000
FTUS43 KJKL 170200 AAB
TAFJKL
TAF AMD
KJKL 170244Z 1703/1724 00000KT 3SM BR SCT004 BKN015
     FM170700 00000KT 1/4SM FG VV002
     FM171230 VRB03KT 2SM BR SCT004 BKN008 OVC020
     FM171400 VRB05KT P6SM SCT008 BKN020
     FM171700 33005KT P6SM SCT035=

USA.gov is the U.S. government's official web portal to all federal, state and local government web resources and services.